sensor_id;sensor_type;location;lat;lon;timestamp;pressure;altitude;pressure_sealevel;temperature;humidity
1926;BME280;964;42.606;23.588;2023-02-12T00:02:19;95516.94;;;6.39;33.62
1926;BME280;964;42.606;23.588;2023-02-12T00:04:47;95511.75;;;6.48;33.25
1926;BME280;964;42.606;23.588;2023-02-12T00:07:14;95515.50;;;6.33;33.47
1926;BME280;964;42.606;23.588;2023-02-12T00:09:41;95510.63;;;5.64;34.52
1926;BME280;964;42.606;23.588;2023-02-12T00:12:08;95515.41;;;5.62;34.36
1926;BME280;964;42.606;23.588;2023-02-12T00:14:35;95520.25;;;5.82;34.37
1926;BME280;964;42.606;23.588;2023-02-12T00:17:03;95519.66;;;5.85;34.55
1926;BME280;964;42.606;23.588;2023-02-12T00:19:30;95516.16;;;6.03;34.25
1926;BME280;964;42.606;23.588;2023-02-12T00:21:57;95518.09;;;5.84;34.31
1926;BME280;964;42.606;23.588;2023-02-12T00:24:24;95512.88;;;5.29;34.86
1926;BME280;964;42.606;23.588;2023-02-12T00:26:51;95522.44;;;5.53;35.21
1926;BME280;964;42.606;23.588;2023-02-12T00:29:17;95518.72;;;5.54;34.75
1926;BME280;964;42.606;23.588;2023-02-12T02:40:34;95446.97;;;5.39;42.49
1926;BME280;964;42.606;23.588;2023-02-12T02:43:06;95450.88;;;6.05;39.39
1926;BME280;964;42.606;23.588;2023-02-12T02:45:38;95431.84;;;6.30;38.86
1926;BME280;964;42.606;23.588;2023-02-12T02:48:09;95444.00;;;6.62;37.35
1926;BME280;964;42.606;23.588;2023-02-12T02:50:40;95446.13;;;6.60;36.78
1926;BME280;964;42.606;23.588;2023-02-12T02:53:11;95437.44;;;6.51;36.40
1926;BME280;964;42.606;23.588;2023-02-12T02:55:44;95444.41;;;7.17;35.60
1926;BME280;964;42.606;23.588;2023-02-12T02:58:16;95444.59;;;6.90;35.99
1926;BME280;964;42.606;23.588;2023-02-12T03:00:49;95440.69;;;7.18;35.72
1926;BME280;964;42.606;23.588;2023-02-12T03:03:22;95441.00;;;7.82;34.62
1926;BME280;964;42.606;23.588;2023-02-12T03:05:55;95441.00;;;7.99;34.33
1926;BME280;964;42.606;23.588;2023-02-12T03:08:28;95445.00;;;7.71;34.78
1926;BME280;964;42.606;23.588;2023-02-12T03:11:04;95432.00;;;8.17;34.21
1926;BME280;964;42.606;23.588;2023-02-12T03:13:36;95444.25;;;7.79;34.46
1926;BME280;964;42.606;23.588;2023-02-12T03:16:08;95432.44;;;7.68;35.14
1926;BME280;964;42.606;23.588;2023-02-12T03:18:40;95444.09;;;7.75;35.50
1926;BME280;964;42.606;23.588;2023-02-12T03:21:12;95445.50;;;7.90;35.28
1926;BME280;964;42.606;23.588;2023-02-12T03:23:43;95434.78;;;8.04;35.37
1926;BME280;964;42.606;23.588;2023-02-12T03:26:18;95430.59;;;8.11;34.99
1926;BME280;964;42.606;23.588;2023-02-12T03:28:46;95440.06;;;7.95;35.03
1926;BME280;964;42.606;23.588;2023-02-12T03:31:20;95428.75;;;7.86;35.13
1926;BME280;964;42.606;23.588;2023-02-12T03:34:03;95433.69;;;7.79;35.94
1926;BME280;964;42.606;23.588;2023-02-12T03:36:37;95432.06;;;7.44;35.51
1926;BME280;964;42.606;23.588;2023-02-12T03:39:10;95434.94;;;8.07;34.66
1926;BME280;964;42.606;23.588;2023-02-12T03:41:43;95432.28;;;7.73;35.88
1926;BME280;964;42.606;23.588;2023-02-12T03:44:17;95416.94;;;8.44;34.18
1926;BME280;964;42.606;23.588;2023-02-12T03:46:56;95418.06;;;8.34;34.45
1926;BME280;964;42.606;23.588;2023-02-12T03:49:28;95423.94;;;8.31;35.03
1926;BME280;964;42.606;23.588;2023-02-12T03:51:58;95425.66;;;8.01;34.52
1926;BME280;964;42.606;23.588;2023-02-12T03:54:25;95427.81;;;7.82;35.16
1926;BME280;964;42.606;23.588;2023-02-12T03:56:57;95433.50;;;8.70;34.17
1926;BME280;964;42.606;23.588;2023-02-12T03:59:27;95438.06;;;8.44;34.97
1926;BME280;964;42.606;23.588;2023-02-12T04:01:56;95439.13;;;8.17;35.45
1926;BME280;964;42.606;23.588;2023-02-12T04:04:24;95435.56;;;8.21;34.76
1926;BME280;964;42.606;23.588;2023-02-12T04:06:52;95438.66;;;7.89;35.21
1926;BME280;964;42.606;23.588;2023-02-12T04:09:21;95427.16;;;8.54;34.60
1926;BME280;964;42.606;23.588;2023-02-12T04:12:05;95427.19;;;8.36;34.66
1926;BME280;964;42.606;23.588;2023-02-12T04:14:41;95426.56;;;8.05;35.55
1926;BME280;964;42.606;23.588;2023-02-12T04:17:20;95418.16;;;7.77;35.15
1926;BME280;964;42.606;23.588;2023-02-12T04:19:57;95414.78;;;8.11;35.07
1926;BME280;964;42.606;23.588;2023-02-12T04:22:37;95412.44;;;7.67;35.86
1926;BME280;964;42.606;23.588;2023-02-12T04:25:16;95411.66;;;7.75;36.20
1926;BME280;964;42.606;23.588;2023-02-12T04:27:54;95412.28;;;7.72;36.52
1926;BME280;964;42.606;23.588;2023-02-12T04:30:25;95425.63;;;7.84;35.88
1926;BME280;964;42.606;23.588;2023-02-12T04:32:56;95421.75;;;8.16;35.67
1926;BME280;964;42.606;23.588;2023-02-12T04:35:30;95434.63;;;8.17;35.45
1926;BME280;964;42.606;23.588;2023-02-12T04:38:03;95441.78;;;8.43;34.63
1926;BME280;964;42.606;23.588;2023-02-12T04:40:34;95442.53;;;8.69;34.99
1926;BME280;964;42.606;23.588;2023-02-12T04:43:02;95436.16;;;8.53;34.65
1926;BME280;964;42.606;23.588;2023-02-12T04:45:30;95441.09;;;8.80;34.97
1926;BME280;964;42.606;23.588;2023-02-12T04:47:58;95440.56;;;8.31;34.67
1926;BME280;964;42.606;23.588;2023-02-12T04:50:26;95440.41;;;8.45;35.17
1926;BME280;964;42.606;23.588;2023-02-12T04:52:54;95447.50;;;8.27;34.81
1926;BME280;964;42.606;23.588;2023-02-12T04:55:20;95442.22;;;8.53;35.14
1926;BME280;964;42.606;23.588;2023-02-12T04:57:47;95443.22;;;8.95;33.64
1926;BME280;964;42.606;23.588;2023-02-12T05:00:16;95434.31;;;8.62;34.24
1926;BME280;964;42.606;23.588;2023-02-12T05:02:43;95429.81;;;8.11;35.13
1926;BME280;964;42.606;23.588;2023-02-12T05:05:10;95430.91;;;8.35;34.54
1926;BME280;964;42.606;23.588;2023-02-12T05:07:36;95419.09;;;8.59;34.53
1926;BME280;964;42.606;23.588;2023-02-12T05:10:04;95438.66;;;8.49;34.20
1926;BME280;964;42.606;23.588;2023-02-12T05:12:31;95434.47;;;8.14;34.97
1926;BME280;964;42.606;23.588;2023-02-12T05:14:57;95436.06;;;8.32;34.47
1926;BME280;964;42.606;23.588;2023-02-12T05:17:26;95427.66;;;8.56;34.66
1926;BME280;964;42.606;23.588;2023-02-12T05:19:52;95434.47;;;8.57;34.19
1926;BME280;964;42.606;23.588;2023-02-12T05:22:19;95439.44;;;7.98;35.29
1926;BME280;964;42.606;23.588;2023-02-12T05:24:46;95438.81;;;8.53;34.21
1926;BME280;964;42.606;23.588;2023-02-12T05:27:12;95442.09;;;8.50;34.42
1926;BME280;964;42.606;23.588;2023-02-12T05:29:39;95454.50;;;8.23;34.86
1926;BME280;964;42.606;23.588;2023-02-12T05:32:06;95451.66;;;8.80;34.63
1926;BME280;964;42.606;23.588;2023-02-12T05:34:35;95464.31;;;8.31;34.78
1926;BME280;964;42.606;23.588;2023-02-12T05:37:02;95465.69;;;8.03;35.51
1926;BME280;964;42.606;23.588;2023-02-12T05:39:29;95472.31;;;8.78;34.08
1926;BME280;964;42.606;23.588;2023-02-12T05:41:56;95470.09;;;8.97;34.04
1926;BME280;964;42.606;23.588;2023-02-12T05:44:22;95477.69;;;8.52;35.03
1926;BME280;964;42.606;23.588;2023-02-12T05:46:49;95473.91;;;8.70;34.74
1926;BME280;964;42.606;23.588;2023-02-12T05:49:16;95487.47;;;9.15;33.91
1926;BME280;964;42.606;23.588;2023-02-12T05:51:44;95496.44;;;8.85;34.89
1926;BME280;964;42.606;23.588;2023-02-12T05:54:10;95509.19;;;8.66;35.51
1926;BME280;964;42.606;23.588;2023-02-12T05:56:42;95511.00;;;8.05;39.17
1926;BME280;964;42.606;23.588;2023-02-12T05:59:13;95514.16;;;8.42;39.26
1926;BME280;964;42.606;23.588;2023-02-12T06:01:41;95512.16;;;8.56;39.57
1926;BME280;964;42.606;23.588;2023-02-12T06:04:12;95495.69;;;9.22;38.23
1926;BME280;964;42.606;23.588;2023-02-12T06:06:40;95497.94;;;9.50;38.53
1926;BME280;964;42.606;23.588;2023-02-12T06:09:09;95497.16;;;9.78;37.01
1926;BME280;964;42.606;23.588;2023-02-12T06:11:35;95492.91;;;9.86;36.46
1926;BME280;964;42.606;23.588;2023-02-12T06:14:03;95495.94;;;9.76;35.85
1926;BME280;964;42.606;23.588;2023-02-12T06:16:30;95487.03;;;9.13;37.32
1926;BME280;964;42.606;23.588;2023-02-12T06:18:57;95497.25;;;9.23;36.86
1926;BME280;964;42.606;23.588;2023-02-12T06:21:27;95497.53;;;9.30;36.85
1926;BME280;964;42.606;23.588;2023-02-12T06:23:54;95495.53;;;9.19;37.53
1926;BME280;964;42.606;23.588;2023-02-12T06:26:23;95497.16;;;9.41;36.69
1926;BME280;964;42.606;23.588;2023-02-12T06:28:50;95494.25;;;9.33;37.34
1926;BME280;964;42.606;23.588;2023-02-12T06:31:19;95493.88;;;9.14;37.79
1926;BME280;964;42.606;23.588;2023-02-12T06:33:46;95496.97;;;9.16;38.56
1926;BME280;964;42.606;23.588;2023-02-12T06:36:14;95502.81;;;9.30;38.47
1926;BME280;964;42.606;23.588;2023-02-12T06:38:40;95492.91;;;9.57;38.08
1926;BME280;964;42.606;23.588;2023-02-12T06:41:07;95500.97;;;9.22;39.31
1926;BME280;964;42.606;23.588;2023-02-12T06:43:36;95504.28;;;9.11;39.82
1926;BME280;964;42.606;23.588;2023-02-12T06:46:03;95503.59;;;9.31;39.25
1926;BME280;964;42.606;23.588;2023-02-12T06:48:31;95500.47;;;9.29;38.96
1926;BME280;964;42.606;23.588;2023-02-12T06:51:03;95502.97;;;9.72;38.91
1926;BME280;964;42.606;23.588;2023-02-12T06:53:32;95505.06;;;9.87;38.58
1926;BME280;964;42.606;23.588;2023-02-12T06:55:59;95505.50;;;10.18;37.66
1926;BME280;964;42.606;23.588;2023-02-12T06:58:26;95508.78;;;9.57;38.76
1926;BME280;964;42.606;23.588;2023-02-12T07:00:54;95513.06;;;9.99;38.39
1926;BME280;964;42.606;23.588;2023-02-12T07:03:21;95508.84;;;10.69;37.15
1926;BME280;964;42.606;23.588;2023-02-12T07:05:48;95511.84;;;10.26;37.89
1926;BME280;964;42.606;23.588;2023-02-12T07:08:14;95510.63;;;9.94;38.48
1926;BME280;964;42.606;23.588;2023-02-12T07:10:41;95519.56;;;10.31;38.46
1926;BME280;964;42.606;23.588;2023-02-12T07:13:08;95515.69;;;10.28;38.51
1926;BME280;964;42.606;23.588;2023-02-12T07:15:38;95516.25;;;9.84;39.53
1926;BME280;964;42.606;23.588;2023-02-12T07:18:06;95513.81;;;9.79;39.79
1926;BME280;964;42.606;23.588;2023-02-12T07:20:33;95512.69;;;10.09;39.72
1926;BME280;964;42.606;23.588;2023-02-12T07:22:59;95519.13;;;10.00;39.86
1926;BME280;964;42.606;23.588;2023-02-12T07:25:26;95509.59;;;10.07;39.62
1926;BME280;964;42.606;23.588;2023-02-12T07:27:53;95522.56;;;9.71;40.16
1926;BME280;964;42.606;23.588;2023-02-12T07:30:20;95521.00;;;9.99;39.42
1926;BME280;964;42.606;23.588;2023-02-12T07:32:46;95519.59;;;10.52;39.02
1926;BME280;964;42.606;23.588;2023-02-12T07:35:14;95509.25;;;10.92;38.54
1926;BME280;964;42.606;23.588;2023-02-12T07:37:41;95512.72;;;10.51;38.50
1926;BME280;964;42.606;23.588;2023-02-12T07:40:09;95513.88;;;11.27;37.14
1926;BME280;964;42.606;23.588;2023-02-12T07:42:35;95516.94;;;11.17;37.74
1926;BME280;964;42.606;23.588;2023-02-12T07:45:02;95514.94;;;10.49;39.28
1926;BME280;964;42.606;23.588;2023-02-12T07:47:29;95529.81;;;10.95;38.15
1926;BME280;964;42.606;23.588;2023-02-12T07:49:56;95531.00;;;11.18;37.75
1926;BME280;964;42.606;23.588;2023-02-12T07:52:24;95533.53;;;10.40;39.23
1926;BME280;964;42.606;23.588;2023-02-12T07:54:51;95531.50;;;10.78;38.38
1926;BME280;964;42.606;23.588;2023-02-12T07:57:17;95533.72;;;11.09;38.08
1926;BME280;964;42.606;23.588;2023-02-12T07:59:44;95531.69;;;10.94;38.20
1926;BME280;964;42.606;23.588;2023-02-12T08:02:11;95536.22;;;10.94;38.44
1926;BME280;964;42.606;23.588;2023-02-12T08:04:37;95538.25;;;10.76;38.61
1926;BME280;964;42.606;23.588;2023-02-12T08:07:04;95542.72;;;10.13;39.57
1926;BME280;964;42.606;23.588;2023-02-12T08:09:32;95548.91;;;10.47;39.61
1926;BME280;964;42.606;23.588;2023-02-12T08:11:59;95542.34;;;10.53;39.04
1926;BME280;964;42.606;23.588;2023-02-12T08:14:26;95545.81;;;10.65;38.48
1926;BME280;964;42.606;23.588;2023-02-12T08:16:52;95546.28;;;11.00;38.44
1926;BME280;964;42.606;23.588;2023-02-12T08:19:20;95543.91;;;11.19;37.99
1926;BME280;964;42.606;23.588;2023-02-12T08:21:48;95541.63;;;10.44;39.03
1926;BME280;964;42.606;23.588;2023-02-12T08:24:15;95540.78;;;10.52;39.10
1926;BME280;964;42.606;23.588;2023-02-12T08:26:43;95547.97;;;11.05;38.58
1926;BME280;964;42.606;23.588;2023-02-12T08:29:11;95546.44;;;11.04;37.92
1926;BME280;964;42.606;23.588;2023-02-12T08:31:40;95556.28;;;10.62;38.48
1926;BME280;964;42.606;23.588;2023-02-12T08:34:15;95557.03;;;10.83;38.60
1926;BME280;964;42.606;23.588;2023-02-12T08:36:42;95560.16;;;10.85;38.46
1926;BME280;964;42.606;23.588;2023-02-12T08:39:08;95561.66;;;11.52;37.94
1926;BME280;964;42.606;23.588;2023-02-12T08:41:36;95567.16;;;11.35;37.40
1926;BME280;964;42.606;23.588;2023-02-12T08:44:04;95572.66;;;11.29;37.86
1926;BME280;964;42.606;23.588;2023-02-12T08:46:33;95564.88;;;11.12;38.13
1926;BME280;964;42.606;23.588;2023-02-12T08:49:02;95561.34;;;11.08;38.58
1926;BME280;964;42.606;23.588;2023-02-12T08:51:32;95565.88;;;11.53;38.06
1926;BME280;964;42.606;23.588;2023-02-12T08:54:02;95574.56;;;11.74;37.07
1926;BME280;964;42.606;23.588;2023-02-12T08:56:30;95578.06;;;11.54;38.08
1926;BME280;964;42.606;23.588;2023-02-12T08:58:58;95566.38;;;12.03;37.15
1926;BME280;964;42.606;23.588;2023-02-12T09:01:29;95566.81;;;12.29;37.10
1926;BME280;964;42.606;23.588;2023-02-12T09:03:56;95560.78;;;13.24;35.41
1926;BME280;964;42.606;23.588;2023-02-12T09:06:23;95561.41;;;14.12;33.84
1926;BME280;964;42.606;23.588;2023-02-12T09:08:51;95567.88;;;13.95;33.34
1926;BME280;964;42.606;23.588;2023-02-12T09:11:22;95564.59;;;14.17;33.54
1926;BME280;964;42.606;23.588;2023-02-12T09:13:55;95570.53;;;14.11;33.45
1926;BME280;964;42.606;23.588;2023-02-12T09:16:22;95569.06;;;14.13;33.25
1926;BME280;964;42.606;23.588;2023-02-12T09:18:50;95567.25;;;14.17;33.25
1926;BME280;964;42.606;23.588;2023-02-12T09:21:17;95581.13;;;13.76;32.68
1926;BME280;964;42.606;23.588;2023-02-12T09:23:44;95582.84;;;13.84;34.23
1926;BME280;964;42.606;23.588;2023-02-12T09:26:13;95587.41;;;13.24;35.18
1926;BME280;964;42.606;23.588;2023-02-12T09:28:41;95591.66;;;12.73;35.75
1926;BME280;964;42.606;23.588;2023-02-12T09:31:10;95592.91;;;13.04;34.06
1926;BME280;964;42.606;23.588;2023-02-12T09:33:37;95591.44;;;13.06;35.43
1926;BME280;964;42.606;23.588;2023-02-12T09:36:09;95588.56;;;13.39;34.33
1926;BME280;964;42.606;23.588;2023-02-12T09:38:36;95598.03;;;13.99;33.46
1926;BME280;964;42.606;23.588;2023-02-12T09:41:35;95584.81;;;14.34;32.93
1926;BME280;964;42.606;23.588;2023-02-12T09:44:10;95592.94;;;14.25;33.16
1926;BME280;964;42.606;23.588;2023-02-12T09:46:46;95582.78;;;14.82;32.44
1926;BME280;964;42.606;23.588;2023-02-12T09:49:20;95572.38;;;15.34;31.45
1926;BME280;964;42.606;23.588;2023-02-12T09:51:51;95572.03;;;15.36;31.56
1926;BME280;964;42.606;23.588;2023-02-12T09:54:20;95570.88;;;16.24;30.36
1926;BME280;964;42.606;23.588;2023-02-12T09:56:51;95573.53;;;16.24;30.30
1926;BME280;964;42.606;23.588;2023-02-12T09:59:25;95582.97;;;15.31;31.08
1926;BME280;964;42.606;23.588;2023-02-12T10:01:54;95571.28;;;16.52;29.69
1926;BME280;964;42.606;23.588;2023-02-12T10:04:21;95578.81;;;16.47;30.29
1926;BME280;964;42.606;23.588;2023-02-12T10:06:57;95574.78;;;16.30;29.96
1926;BME280;964;42.606;23.588;2023-02-12T10:09:35;95569.88;;;16.09;30.97
1926;BME280;964;42.606;23.588;2023-02-12T10:12:11;95581.53;;;15.14;31.35
1926;BME280;964;42.606;23.588;2023-02-12T10:17:42;95586.22;;;15.59;31.44
1926;BME280;964;42.606;23.588;2023-02-12T10:20:34;95592.69;;;15.19;32.38
1926;BME280;964;42.606;23.588;2023-02-12T10:23:29;95593.53;;;14.85;32.80
1926;BME280;964;42.606;23.588;2023-02-12T10:26:08;95610.38;;;14.54;32.62
1926;BME280;964;42.606;23.588;2023-02-12T10:28:40;95612.38;;;15.11;32.06
1926;BME280;964;42.606;23.588;2023-02-12T10:31:12;95604.84;;;14.79;33.15
1926;BME280;964;42.606;23.588;2023-02-12T10:33:43;95608.47;;;14.70;32.94
1926;BME280;964;42.606;23.588;2023-02-12T10:36:17;95609.94;;;14.87;32.42
1926;BME280;964;42.606;23.588;2023-02-12T10:38:51;95599.56;;;14.82;32.53
1926;BME280;964;42.606;23.588;2023-02-12T10:41:20;95597.19;;;15.15;31.70
1926;BME280;964;42.606;23.588;2023-02-12T10:43:48;95602.50;;;14.77;32.78
1926;BME280;964;42.606;23.588;2023-02-12T10:46:16;95592.97;;;14.95;32.31
1926;BME280;964;42.606;23.588;2023-02-12T10:48:45;95589.16;;;15.35;32.12
1926;BME280;964;42.606;23.588;2023-02-12T10:51:29;95585.78;;;15.38;32.10
1926;BME280;964;42.606;23.588;2023-02-12T10:54:38;95592.94;;;15.34;31.91
1926;BME280;964;42.606;23.588;2023-02-12T10:57:10;95588.75;;;15.52;32.15
1926;BME280;964;42.606;23.588;2023-02-12T10:59:38;95589.63;;;15.59;31.82
1926;BME280;964;42.606;23.588;2023-02-12T11:02:18;95583.97;;;15.84;31.80
1926;BME280;964;42.606;23.588;2023-02-12T11:04:45;95590.03;;;15.81;31.08
1926;BME280;964;42.606;23.588;2023-02-12T11:07:12;95601.31;;;14.94;32.37
1926;BME280;964;42.606;23.588;2023-02-12T11:09:42;95601.09;;;14.83;32.34
1926;BME280;964;42.606;23.588;2023-02-12T11:12:25;95590.44;;;14.83;32.55
1926;BME280;964;42.606;23.588;2023-02-12T11:14:55;95600.72;;;15.00;32.56
1926;BME280;964;42.606;23.588;2023-02-12T11:17:25;95595.47;;;14.69;32.88
1926;BME280;964;42.606;23.588;2023-02-12T11:20:22;95595.06;;;15.44;32.36
1926;BME280;964;42.606;23.588;2023-02-12T11:22:51;95589.59;;;15.17;32.48
1926;BME280;964;42.606;23.588;2023-02-12T11:25:21;95594.44;;;15.31;32.45
1926;BME280;964;42.606;23.588;2023-02-12T11:28:05;95588.88;;;15.59;32.15
1926;BME280;964;42.606;23.588;2023-02-12T11:30:48;95595.66;;;15.98;31.21
1926;BME280;964;42.606;23.588;2023-02-12T11:33:23;95601.38;;;14.97;32.80
1926;BME280;964;42.606;23.588;2023-02-12T11:35:53;95605.75;;;14.86;33.10
1926;BME280;964;42.606;23.588;2023-02-12T11:38:26;95600.56;;;14.93;32.41
1926;BME280;964;42.606;23.588;2023-02-12T11:40:59;95592.38;;;15.86;31.69
1926;BME280;964;42.606;23.588;2023-02-12T11:43:26;95599.28;;;16.09;31.68
1926;BME280;964;42.606;23.588;2023-02-12T11:45:56;95602.59;;;16.03;31.37
1926;BME280;964;42.606;23.588;2023-02-12T11:48:27;95603.25;;;16.68;30.61
1926;BME280;964;42.606;23.588;2023-02-12T11:50:57;95607.13;;;16.48;30.51
1926;BME280;964;42.606;23.588;2023-02-12T11:53:29;95602.81;;;16.66;29.86
1926;BME280;964;42.606;23.588;2023-02-12T11:55:59;95586.59;;;17.11;29.27
1926;BME280;964;42.606;23.588;2023-02-12T11:58:27;95599.94;;;16.78;29.44
1926;BME280;964;42.606;23.588;2023-02-12T12:01:00;95603.25;;;16.19;30.63
1926;BME280;964;42.606;23.588;2023-02-12T12:03:31;95603.78;;;16.54;30.43
1926;BME280;964;42.606;23.588;2023-02-12T12:06:06;95598.78;;;16.53;30.98
1926;BME280;964;42.606;23.588;2023-02-12T12:08:38;95587.38;;;16.82;30.76
1926;BME280;964;42.606;23.588;2023-02-12T12:11:11;95591.38;;;16.69;30.15
1926;BME280;964;42.606;23.588;2023-02-12T12:13:45;95596.94;;;16.83;29.42
1926;BME280;964;42.606;23.588;2023-02-12T12:16:19;95605.22;;;15.99;30.74
1926;BME280;964;42.606;23.588;2023-02-12T12:19:10;95605.66;;;16.01;31.12
1926;BME280;964;42.606;23.588;2023-02-12T12:22:02;95605.03;;;16.11;30.97
1926;BME280;964;42.606;23.588;2023-02-12T12:24:37;95606.28;;;16.44;30.18
1926;BME280;964;42.606;23.588;2023-02-12T12:27:14;95612.81;;;16.69;30.29
1926;BME280;964;42.606;23.588;2023-02-12T12:30:17;95611.09;;;15.86;31.48
1926;BME280;964;42.606;23.588;2023-02-12T12:32:46;95611.41;;;16.52;30.70
1926;BME280;964;42.606;23.588;2023-02-12T12:35:16;95618.41;;;16.11;31.02
1926;BME280;964;42.606;23.588;2023-02-12T12:37:47;95615.16;;;15.38;31.81
1926;BME280;964;42.606;23.588;2023-02-12T12:40:28;95614.16;;;15.46;32.14
1926;BME280;964;42.606;23.588;2023-02-12T12:43:09;95620.63;;;14.68;33.33
1926;BME280;964;42.606;23.588;2023-02-12T12:46:09;95621.22;;;14.96;33.09
1926;BME280;964;42.606;23.588;2023-02-12T12:52:02;95628.09;;;15.36;32.23
1926;BME280;964;42.606;23.588;2023-02-12T12:54:45;95620.09;;;15.36;32.47
1926;BME280;964;42.606;23.588;2023-02-12T12:57:20;95617.97;;;15.64;32.40
1926;BME280;964;42.606;23.588;2023-02-12T13:00:05;95622.91;;;15.04;32.85
1926;BME280;964;42.606;23.588;2023-02-12T13:05:58;95616.72;;;15.39;32.81
1926;BME280;964;42.606;23.588;2023-02-12T13:08:53;95615.94;;;16.75;30.68
1926;BME280;964;42.606;23.588;2023-02-12T13:11:38;95621.31;;;17.04;29.84
1926;BME280;964;42.606;23.588;2023-02-12T13:14:30;95630.03;;;16.45;30.84
1926;BME280;964;42.606;23.588;2023-02-12T13:17:07;95632.59;;;16.61;31.05
1926;BME280;964;42.606;23.588;2023-02-12T13:19:46;95633.47;;;16.72;30.46
1926;BME280;964;42.606;23.588;2023-02-12T13:22:20;95633.00;;;15.72;31.87
1926;BME280;964;42.606;23.588;2023-02-12T13:24:55;95645.13;;;16.11;31.27
1926;BME280;964;42.606;23.588;2023-02-12T13:27:27;95654.09;;;16.00;31.35
1926;BME280;964;42.606;23.588;2023-02-12T13:30:00;95652.78;;;16.36;31.15
1926;BME280;964;42.606;23.588;2023-02-12T13:32:33;95643.28;;;16.61;30.88
1926;BME280;964;42.606;23.588;2023-02-12T13:35:04;95645.13;;;16.57;31.26
1926;BME280;964;42.606;23.588;2023-02-12T13:37:36;95647.09;;;16.60;30.49
1926;BME280;964;42.606;23.588;2023-02-12T13:40:07;95651.31;;;16.61;30.86
1926;BME280;964;42.606;23.588;2023-02-12T13:42:48;95650.97;;;16.17;31.38
1926;BME280;964;42.606;23.588;2023-02-12T13:45:23;95654.34;;;15.91;32.45
1926;BME280;964;42.606;23.588;2023-02-12T13:48:04;95651.59;;;15.65;32.18
1926;BME280;964;42.606;23.588;2023-02-12T13:50:39;95657.16;;;16.21;32.03
1926;BME280;964;42.606;23.588;2023-02-12T13:53:18;95655.63;;;15.78;31.80
1926;BME280;964;42.606;23.588;2023-02-12T13:56:03;95657.16;;;16.70;31.45
1926;BME280;964;42.606;23.588;2023-02-12T13:58:39;95660.28;;;16.27;31.09
1926;BME280;964;42.606;23.588;2023-02-12T14:01:08;95672.13;;;15.61;31.99
1926;BME280;964;42.606;23.588;2023-02-12T14:03:38;95672.63;;;15.89;31.92
1926;BME280;964;42.606;23.588;2023-02-12T14:06:10;95665.16;;;15.98;32.20
1926;BME280;964;42.606;23.588;2023-02-12T14:08:39;95660.56;;;15.76;31.83
1926;BME280;964;42.606;23.588;2023-02-12T14:11:08;95674.38;;;15.59;32.04
1926;BME280;964;42.606;23.588;2023-02-12T14:13:47;95683.19;;;15.44;32.52
1926;BME280;964;42.606;23.588;2023-02-12T14:16:34;95690.41;;;15.24;32.37
1926;BME280;964;42.606;23.588;2023-02-12T14:19:37;95688.13;;;16.03;32.16
1926;BME280;964;42.606;23.588;2023-02-12T14:22:12;95689.91;;;16.60;31.58
1926;BME280;964;42.606;23.588;2023-02-12T14:24:50;95701.84;;;17.19;31.00
1926;BME280;964;42.606;23.588;2023-02-12T14:27:26;95695.50;;;17.30;30.00
1926;BME280;964;42.606;23.588;2023-02-12T14:32:56;95713.06;;;16.75;30.96
1926;BME280;964;42.606;23.588;2023-02-12T14:35:33;95710.44;;;16.10;31.76
1926;BME280;964;42.606;23.588;2023-02-12T14:38:01;95713.53;;;16.12;31.83
1926;BME280;964;42.606;23.588;2023-02-12T14:40:42;95711.28;;;16.14;31.77
1926;BME280;964;42.606;23.588;2023-02-12T14:43:27;95717.19;;;16.04;31.75
1926;BME280;964;42.606;23.588;2023-02-12T14:45:56;95722.81;;;16.41;31.76
1926;BME280;964;42.606;23.588;2023-02-12T14:48:44;95728.38;;;16.75;31.49
1926;BME280;964;42.606;23.588;2023-02-12T14:51:21;95733.56;;;16.22;32.32
1926;BME280;964;42.606;23.588;2023-02-12T14:53:49;95733.75;;;16.33;31.29
1926;BME280;964;42.606;23.588;2023-02-12T14:56:20;95741.13;;;16.16;31.88
1926;BME280;964;42.606;23.588;2023-02-12T14:58:48;95741.66;;;16.26;31.36
1926;BME280;964;42.606;23.588;2023-02-12T15:01:15;95746.75;;;16.11;31.85
1926;BME280;964;42.606;23.588;2023-02-12T15:03:47;95758.69;;;16.17;31.69
1926;BME280;964;42.606;23.588;2023-02-12T15:06:19;95756.06;;;15.79;32.26
1926;BME280;964;42.606;23.588;2023-02-12T15:08:53;95761.34;;;15.95;32.01
1926;BME280;964;42.606;23.588;2023-02-12T15:11:27;95762.94;;;15.99;31.88
1926;BME280;964;42.606;23.588;2023-02-12T15:13:59;95765.59;;;16.18;31.33
1926;BME280;964;42.606;23.588;2023-02-12T15:16:33;95780.97;;;16.25;31.62
1926;BME280;964;42.606;23.588;2023-02-12T15:19:04;95775.31;;;16.07;31.72
1926;BME280;964;42.606;23.588;2023-02-12T15:21:39;95789.53;;;15.73;32.28
1926;BME280;964;42.606;23.588;2023-02-12T15:24:07;95782.44;;;15.81;32.31
1926;BME280;964;42.606;23.588;2023-02-12T15:26:38;95795.16;;;16.06;31.75
1926;BME280;964;42.606;23.588;2023-02-12T15:29:12;95803.19;;;15.87;32.07
1926;BME280;964;42.606;23.588;2023-02-12T15:31:41;95817.78;;;15.55;32.64
1926;BME280;964;42.606;23.588;2023-02-12T15:34:17;95817.25;;;15.34;32.83
1926;BME280;964;42.606;23.588;2023-02-12T15:36:47;95812.44;;;15.55;32.50
1926;BME280;964;42.606;23.588;2023-02-12T15:39:17;95815.56;;;15.26;33.06
1926;BME280;964;42.606;23.588;2023-02-12T15:41:46;95820.84;;;14.91;34.22
1926;BME280;964;42.606;23.588;2023-02-12T15:44:25;95815.72;;;15.33;33.53
1926;BME280;964;42.606;23.588;2023-02-12T15:46:57;95814.56;;;14.83;34.45
1926;BME280;964;42.606;23.588;2023-02-12T15:49:34;95820.06;;;14.59;34.08
1926;BME280;964;42.606;23.588;2023-02-12T15:52:06;95829.28;;;14.93;33.34
1926;BME280;964;42.606;23.588;2023-02-12T15:54:49;95828.91;;;14.47;34.10
1926;BME280;964;42.606;23.588;2023-02-12T15:57:20;95838.50;;;14.95;33.60
1926;BME280;964;42.606;23.588;2023-02-12T15:59:49;95837.53;;;14.72;33.94
1926;BME280;964;42.606;23.588;2023-02-12T16:02:19;95836.06;;;15.21;33.01
1926;BME280;964;42.606;23.588;2023-02-12T16:04:46;95839.13;;;15.04;32.79
1926;BME280;964;42.606;23.588;2023-02-12T16:07:15;95852.25;;;14.97;33.21
1926;BME280;964;42.606;23.588;2023-02-12T16:09:42;95862.28;;;15.00;33.34
1926;BME280;964;42.606;23.588;2023-02-12T16:12:13;95861.06;;;15.29;32.52